Time;durP1;ratioP1;P1;durP2;ratioP2;P2;SDS_P1;SDS_P2;PMS_P1;PMS_P2;Temp;Humidity;BMP_temperature;BMP_pressure;BME280_temperature;BME280_humidity;BME280_pressure;Samples;Min_cycle;Max_cycle;Signal;HPM_P1;HPM_P2
2022/06/06 00:01:20;;;;;;;3.20;2.53;;;;;;;20.97;41.51;99718.03;4361068;32;33746;-64
2022/06/06 00:03:49;;;;;;;2.92;2.22;;;;;;;21.19;41.11;99725.41;4362091;32;33600;-65
2022/06/06 00:06:19;;;;;;;3.20;2.10;;;;;;;20.27;43.29;99726.72;4361816;32;33870;-66
2022/06/06 00:08:48;;;;;;;2.05;1.85;;;;;;;20.80;41.68;99738.06;4361004;32;34210;-63
2022/06/06 00:11:16;;;;;;;2.65;2.17;;;;;;;20.90;41.42;99737.78;4361289;32;33783;-66
2022/06/06 00:13:45;;;;;;;2.75;1.90;;;;;;;20.86;41.41;99737.62;4361452;32;33741;-64
2022/06/06 00:16:13;;;;;;;3.22;2.55;;;;;;;21.07;41.21;99735.09;4361286;32;34998;-67
2022/06/06 00:18:44;;;;;;;3.87;2.25;;;;;;;21.00;41.08;99737.50;4361459;32;34093;-64
2022/06/06 00:21:12;;;;;;;4.18;2.30;;;;;;;21.23;40.67;99731.91;4361012;32;33682;-63
2022/06/06 00:23:39;;;;;;;4.18;2.47;;;;;;;20.86;41.51;99736.81;4361679;32;33751;-63
2022/06/06 00:26:10;;;;;;;3.22;2.40;;;;;;;20.75;42.07;99725.22;4361732;32;34417;-64
2022/06/06 00:28:39;;;;;;;3.15;1.98;;;;;;;20.73;42.12;99723.94;4361518;32;34862;-63
2022/06/06 00:36:41;;;;;;;3.12;2.28;;;;;;;20.74;42.05;99740.16;4361497;32;34197;-65
2022/06/06 00:39:11;;;;;;;3.15;2.37;;;;;;;20.50;42.85;99751.53;4361484;32;34198;-63
2022/06/06 00:41:40;;;;;;;3.12;2.37;;;;;;;20.69;42.48;99749.37;4361174;32;33868;-65
2022/06/06 00:44:11;;;;;;;2.70;2.33;;;;;;;20.88;41.83;99756.59;4361819;32;33617;-63
2022/06/06 00:47:16;;;;;;;3.53;2.40;;;;;;;20.69;42.54;99760.41;4361393;32;35202;-64
2022/06/06 00:49:49;;;;;;;2.55;1.92;;;;;;;20.78;42.32;99768.72;4358831;32;34015;-64
2022/06/06 00:52:26;;;;;;;3.03;2.40;;;;;;;20.59;43.00;99762.63;4347599;32;34527;-64
2022/06/06 00:54:57;;;;;;;2.83;2.28;;;;;;;20.51;43.48;99777.12;4348021;32;34221;-63
2022/06/06 00:57:28;;;;;;;2.30;1.98;;;;;;;20.81;42.55;99778.31;4361656;32;33907;-65
2022/06/06 00:59:57;;;;;;;3.10;2.08;;;;;;;20.18;44.08;99782.91;4360936;32;34921;-64
2022/06/06 01:02:24;;;;;;;3.80;2.20;;;;;;;19.92;44.83;99796.44;4361047;32;33498;-66
2022/06/06 01:04:53;;;;;;;3.15;2.20;;;;;;;20.38;43.66;99812.69;4361395;32;33964;-64
2022/06/06 01:07:21;;;;;;;2.67;2.30;;;;;;;20.45;43.92;99815.84;4347817;32;34791;-64
2022/06/06 01:09:49;;;;;;;2.87;2.28;;;;;;;20.56;43.22;99807.31;4361128;32;33656;-63
2022/06/06 01:12:19;;;;;;;2.90;2.37;;;;;;;20.42;43.93;99801.88;4360966;32;34663;-63
2022/06/06 01:14:55;;;;;;;3.12;2.45;;;;;;;20.59;43.59;99793.75;4361164;32;34749;-64
2022/06/06 01:17:31;;;;;;;2.85;2.05;;;;;;;20.35;44.22;99798.75;4360639;32;35059;-65
2022/06/06 01:20:12;;;;;;;3.65;2.53;;;;;;;20.56;43.84;99804.56;4347357;32;34981;-64
2022/06/06 01:23:09;;;;;;;4.37;2.65;;;;;;;19.89;45.89;99803.37;4348764;32;33662;-64
2022/06/06 01:25:52;;;;;;;2.83;2.30;;;;;;;20.13;45.69;99810.53;4350010;32;34748;-64
2022/06/06 01:28:31;;;;;;;3.83;2.80;;;;;;;19.62;46.75;99810.53;4363142;32;33929;-63
2022/06/06 01:31:03;;;;;;;5.68;2.65;;;;;;;19.45;47.47;99804.84;4362952;32;34319;-64
2022/06/06 01:33:46;;;;;;;4.45;2.37;;;;;;;19.74;46.90;99810.06;4337238;32;33277;-64
2022/06/06 01:36:14;;;;;;;3.30;2.72;;;;;;;19.46;47.62;99814.75;4362081;32;33469;-63
2022/06/06 01:38:42;;;;;;;5.32;2.83;;;;;;;19.51;48.10;99825.63;4362808;32;34315;-64
2022/06/06 01:41:11;;;;;;;3.37;2.78;;;;;;;19.23;48.65;99830.31;4349203;32;34884;-64
2022/06/06 01:43:45;;;;;;;4.68;2.62;;;;;;;19.32;48.46;99839.50;4362624;32;33753;-64
2022/06/06 01:46:18;;;;;;;4.25;3.10;;;;;;;19.84;47.24;99844.78;4349315;32;34501;-64
2022/06/06 01:48:48;;;;;;;3.78;2.67;;;;;;;20.18;47.18;99858.09;4349364;32;34309;-63
2022/06/06 01:51:22;;;;;;;3.25;2.58;;;;;;;20.70;46.60;99871.50;4362422;32;33947;-64
2022/06/06 01:53:50;;;;;;;3.95;2.78;;;;;;;20.75;46.59;99889.88;4362730;32;33427;-64
2022/06/06 01:56:21;;;;;;;3.80;2.83;;;;;;;20.72;46.84;99920.81;4362639;32;35434;-63
2022/06/06 01:58:48;;;;;;;3.53;2.80;;;;;;;21.17;45.39;99929.09;4362284;32;34195;-63
2022/06/06 02:01:16;;;;;;;2.87;2.58;;;;;;;21.02;45.41;99958.69;4362499;32;34901;-63
2022/06/06 02:03:45;;;;;;;4.10;2.95;;;;;;;21.13;45.08;99966.72;4362741;32;34579;-63
2022/06/06 02:06:13;;;;;;;3.70;2.92;;;;;;;20.93;45.33;99963.34;4362110;32;33988;-64
2022/06/06 02:08:42;;;;;;;3.55;2.87;;;;;;;20.90;45.83;99961.19;4362432;32;34286;-63
2022/06/06 02:11:11;;;;;;;4.70;2.50;;;;;;;20.91;45.96;99954.56;4362865;32;34238;-64
2022/06/06 02:13:38;;;;;;;3.58;2.53;;;;;;;21.17;45.32;99945.66;4362660;32;33631;-64
2022/06/06 02:16:06;;;;;;;4.32;2.90;;;;;;;21.38;45.40;99934.88;4362238;32;33688;-64
2022/06/06 02:18:34;;;;;;;3.80;2.80;;;;;;;21.43;45.50;99935.59;4362536;32;33880;-63
2022/06/06 02:21:01;;;;;;;4.07;2.60;;;;;;;21.31;45.81;99918.78;4362014;32;35115;-65
2022/06/06 02:23:29;;;;;;;2.60;2.22;;;;;;;21.24;45.97;99915.66;4362499;32;33429;-64
2022/06/06 02:25:57;;;;;;;3.28;2.70;;;;;;;21.22;46.46;99913.19;4362677;32;34078;-65
2022/06/06 02:28:25;;;;;;;3.28;2.40;;;;;;;21.19;46.32;99911.09;4362127;32;34085;-64
2022/06/06 02:30:52;;;;;;;3.12;2.65;;;;;;;21.20;47.14;99911.91;4362233;32;34673;-64
2022/06/06 02:33:20;;;;;;;3.05;2.53;;;;;;;21.49;46.62;99920.53;4362100;32;33692;-63
2022/06/06 02:35:48;;;;;;;4.57;2.45;;;;;;;21.88;45.62;99920.84;4361759;32;34811;-64
2022/06/06 02:38:16;;;;;;;3.10;2.60;;;;;;;21.74;45.52;99925.66;4362401;32;35054;-64
2022/06/06 02:40:44;;;;;;;2.92;2.45;;;;;;;21.52;46.24;99926.56;4361831;32;34200;-64
2022/06/06 02:43:13;;;;;;;3.20;2.75;;;;;;;21.29;47.25;99921.88;4361380;32;33809;-64
2022/06/06 02:45:41;;;;;;;4.95;2.50;;;;;;;20.90;48.13;99922.56;4361639;32;34620;-64
2022/06/06 02:48:09;;;;;;;4.00;2.58;;;;;;;21.00;47.91;99914.06;4362346;32;33985;-64
2022/06/06 02:50:38;;;;;;;3.25;2.85;;;;;;;20.90;47.79;99908.78;4361489;32;34415;-64
2022/06/06 02:53:06;;;;;;;2.90;2.60;;;;;;;20.03;49.89;99911.56;4362108;32;33839;-63
2022/06/06 02:55:34;;;;;;;3.50;2.62;;;;;;;20.06;49.57;99910.13;4362255;32;34103;-64
2022/06/06 02:58:02;;;;;;;3.25;2.60;;;;;;;20.59;48.72;99901.25;4361782;32;34309;-64
2022/06/06 03:00:32;;;;;;;3.53;2.60;;;;;;;21.09;48.58;99903.88;4361734;32;33987;-64
2022/06/06 03:03:00;;;;;;;3.83;3.00;;;;;;;21.26;47.78;99907.88;4361952;32;33402;-64
2022/06/06 03:05:38;;;;;;;3.40;2.70;;;;;;;21.26;47.14;99908.69;4362227;32;34678;-63
2022/06/06 03:08:31;;;;;;;3.12;2.50;;;;;;;21.10;47.48;99907.44;4362529;32;34324;-64
2022/06/06 03:11:29;;;;;;;3.20;2.75;;;;;;;20.61;49.25;99915.56;4361436;32;34020;-64
2022/06/06 03:14:24;;;;;;;3.20;2.50;;;;;;;20.94;48.26;99898.75;4361330;32;33850;-63
2022/06/06 03:22:59;;;;;;;4.32;2.58;;;;;;;21.01;48.57;99899.12;4350747;32;33986;-64
2022/06/06 03:25:42;;;;;;;3.95;2.78;;;;;;;20.90;49.97;99890.28;4361497;32;33848;-63
2022/06/06 03:28:28;;;;;;;3.53;2.85;;;;;;;20.76;50.00;99886.00;4348689;32;33784;-64
2022/06/06 03:30:58;;;;;;;5.30;2.97;;;;;;;20.64;50.12;99886.53;4344558;33;33691;-64
2022/06/06 03:33:52;;;;;;;4.75;2.95;;;;;;;20.59;50.30;99881.16;4346471;33;35050;-64
2022/06/06 03:36:31;;;;;;;3.70;2.67;;;;;;;21.03;49.99;99879.50;4340719;33;33632;-64
2022/06/06 03:39:20;;;;;;;3.53;2.55;;;;;;;20.79;50.03;99874.31;4347200;33;34865;-64
2022/06/06 03:42:25;;;;;;;3.40;2.87;;;;;;;20.73;50.08;99861.78;4357567;32;35613;-64
2022/06/06 03:45:13;;;;;;;3.12;2.72;;;;;;;20.80;49.53;99860.22;4361572;32;33547;-64
2022/06/06 03:48:03;;;;;;;3.10;2.55;;;;;;;20.96;50.54;99846.84;4348332;32;33555;-67
2022/06/06 03:50:46;;;;;;;3.78;2.78;;;;;;;21.02;50.70;99851.09;4361153;32;33847;-66
2022/06/06 03:53:34;;;;;;;3.72;2.90;;;;;;;20.79;51.56;99844.00;4361989;32;33989;-67
2022/06/06 03:56:04;;;;;;;3.58;2.87;;;;;;;20.65;51.70;99830.28;4348359;32;34974;-65
2022/06/06 03:58:33;;;;;;;3.65;3.08;;;;;;;20.88;51.44;99834.66;4361458;32;34502;-66
2022/06/06 04:01:03;;;;;;;4.87;3.08;;;;;;;20.83;51.31;99833.97;4361285;32;34007;-66
2022/06/06 04:03:33;;;;;;;3.75;2.97;;;;;;;20.95;50.65;99834.22;4345006;32;35166;-69
2022/06/06 04:06:01;;;;;;;4.37;3.08;;;;;;;20.94;50.62;99834.50;4360618;32;34233;-68
2022/06/06 04:08:32;;;;;;;3.72;3.25;;;;;;;21.16;50.07;99831.69;4360337;32;33960;-71
2022/06/06 04:11:27;;;;;;;3.65;2.72;;;;;;;21.13;50.38;99839.81;4359669;32;33678;-65
2022/06/06 04:14:15;;;;;;;3.80;2.87;;;;;;;21.52;49.39;99855.59;4351201;32;34148;-68
2022/06/06 04:16:46;;;;;;;3.83;3.00;;;;;;;21.29;48.91;99854.81;4344080;32;34871;-70
2022/06/06 04:19:30;;;;;;;3.62;2.72;;;;;;;21.14;48.23;99866.25;4360835;32;33709;-72
2022/06/06 04:22:03;;;;;;;5.07;2.97;;;;;;;21.03;49.07;99862.94;4347717;32;34461;-67
2022/06/06 04:25:16;;;;;;;4.00;2.90;;;;;;;20.93;49.33;99868.72;4360478;32;35097;-69
2022/06/06 04:28:07;;;;;;;3.22;2.80;;;;;;;21.09;48.85;99870.78;4346059;32;34816;-67
2022/06/06 04:30:50;;;;;;;4.15;3.28;;;;;;;20.81;49.75;99872.88;4339132;33;33463;-66
2022/06/06 04:33:20;;;;;;;3.08;2.60;;;;;;;21.14;50.01;99880.03;4330520;33;84456;-68
2022/06/06 04:36:03;;;;;;;3.80;2.75;;;;;;;20.85;49.79;99881.34;4332573;33;34278;-69
2022/06/06 04:38:39;;;;;;;4.68;3.25;;;;;;;21.03;49.27;99874.78;4359408;32;34750;-73
2022/06/06 04:41:29;;;;;;;3.30;2.87;;;;;;;20.80;50.21;99875.94;4352378;32;33371;-64
2022/06/06 04:44:09;;;;;;;3.83;3.05;;;;;;;20.72;51.38;99879.47;4360296;32;35068;-70
2022/06/06 04:46:52;;;;;;;3.85;2.97;;;;;;;21.27;50.25;99881.91;4345975;32;35450;-65
2022/06/06 04:49:20;;;;;;;3.67;3.10;;;;;;;20.71;51.65;99886.91;4360223;32;33719;-68
2022/06/06 04:51:49;;;;;;;4.10;3.05;;;;;;;20.51;52.51;99882.66;4346564;32;33691;-71
2022/06/06 04:54:20;;;;;;;3.97;2.97;;;;;;;20.78;52.16;99880.97;4346298;32;33845;-70
2022/06/06 04:56:54;;;;;;;4.10;2.83;;;;;;;20.78;52.55;99883.75;4359832;32;35081;-70
2022/06/06 04:59:23;;;;;;;4.12;3.00;;;;;;;21.08;51.86;99887.66;4360165;32;34507;-73
2022/06/06 05:01:50;;;;;;;3.15;2.85;;;;;;;21.22;50.81;99891.12;4346495;32;34417;-73
2022/06/06 05:04:18;;;;;;;3.97;3.20;;;;;;;21.66;50.05;99900.47;4359710;32;33644;-69
2022/06/06 05:07:10;;;;;;;3.55;2.65;;;;;;;21.86;49.04;99903.78;4360076;32;34287;-66
2022/06/06 05:09:53;;;;;;;3.55;2.92;;;;;;;21.93;49.22;99895.81;4359895;32;32828;-70
2022/06/06 05:12:39;;;;;;;4.82;2.97;;;;;;;21.91;50.54;99901.66;4360213;32;33780;-67
2022/06/06 05:15:29;;;;;;;4.75;2.95;;;;;;;22.01;50.86;99906.09;4359381;32;33972;-72
2022/06/06 05:18:04;;;;;;;3.92;3.12;;;;;;;22.32;50.82;99906.00;4346358;32;34289;-69
2022/06/06 05:20:51;;;;;;;4.00;3.10;;;;;;;22.60;50.57;99908.44;4346634;32;34219;-66
2022/06/06 05:23:34;;;;;;;6.68;3.70;;;;;;;22.51;50.83;99908.44;4349727;32;33755;-72
2022/06/06 05:26:20;;;;;;;6.37;4.03;;;;;;;22.16;52.11;99910.34;4346326;32;34884;-71
2022/06/06 05:29:05;;;;;;;7.25;3.30;;;;;;;22.54;52.51;99920.81;4359893;32;34095;-70
2022/06/06 05:32:07;;;;;;;5.40;3.53;;;;;;;22.62;51.87;99924.72;4359529;32;34126;-67
2022/06/06 05:34:40;;;;;;;4.00;2.80;;;;;;;22.47;52.42;99918.53;4359080;32;33686;-66
2022/06/06 05:37:26;;;;;;;4.00;2.90;;;;;;;22.60;53.93;99921.47;4341131;32;33985;-72
2022/06/06 05:40:15;;;;;;;4.70;3.53;;;;;;;22.76;53.05;99917.06;4359702;32;33950;-67
2022/06/06 05:42:58;;;;;;;4.50;3.08;;;;;;;22.48;55.06;99913.81;4360548;32;34821;-66
2022/06/06 05:45:28;;;;;;;4.90;3.20;;;;;;;22.74;54.03;99911.03;4350729;32;33694;-64
2022/06/06 05:48:25;;;;;;;4.93;3.45;;;;;;;22.23;55.97;99913.47;4345500;33;34063;-65
2022/06/06 05:51:06;;;;;;;5.00;3.25;;;;;;;22.04;55.87;99910.97;4331548;33;34309;-66
2022/06/06 05:53:40;;;;;;;4.70;3.28;;;;;;;22.66;55.60;99918.22;4345473;33;34986;-63
2022/06/06 05:56:32;;;;;;;5.50;3.35;;;;;;;22.54;55.54;99918.03;4352712;32;33501;-64
2022/06/06 05:59:18;;;;;;;4.45;3.00;;;;;;;23.12;53.66;99925.03;4359948;32;33639;-64
2022/06/06 06:01:55;;;;;;;4.20;3.08;;;;;;;23.25;53.82;99925.16;4359711;32;34132;-68
2022/06/06 06:04:47;;;;;;;3.92;3.20;;;;;;;23.11;53.70;99928.94;4360548;32;34035;-68
2022/06/06 06:07:46;;;;;;;5.22;3.20;;;;;;;22.65;55.85;99919.34;4348029;32;34430;-66
2022/06/06 06:10:33;;;;;;;4.60;3.45;;;;;;;22.36;57.20;99922.75;4362069;32;34436;-68
2022/06/06 06:13:14;;;;;;;4.03;3.15;;;;;;;23.17;55.41;99926.00;4340337;32;35134;-68
2022/06/06 06:15:43;;;;;;;4.55;3.53;;;;;;;23.16;55.04;99921.62;4349489;32;34813;-68
2022/06/06 06:18:25;;;;;;;4.32;3.17;;;;;;;23.75;53.07;99927.25;4361597;32;33543;-69
2022/06/06 06:21:05;;;;;;;4.45;3.45;;;;;;;23.84;53.15;99925.28;4359037;32;33678;-68
2022/06/06 06:23:34;;;;;;;4.22;3.05;;;;;;;24.19;52.23;99925.13;4348148;32;35514;-68
2022/06/06 06:26:05;;;;;;;3.80;2.92;;;;;;;24.49;49.31;99931.47;4362737;32;33846;-67
2022/06/06 06:28:34;;;;;;;3.53;2.80;;;;;;;24.51;48.07;99939.41;4361779;32;33783;-68
2022/06/06 06:31:05;;;;;;;3.37;2.80;;;;;;;24.55;47.18;99945.91;4362312;32;33693;-68
2022/06/06 06:34:04;;;;;;;4.10;3.05;;;;;;;23.43;50.37;99943.34;4362540;32;33848;-69
2022/06/06 06:37:07;;;;;;;3.70;3.05;;;;;;;23.41;49.40;99944.81;4348863;32;34239;-68
2022/06/06 06:39:40;;;;;;;4.20;3.10;;;;;;;22.84;52.44;99935.59;4309247;33;33679;-67
2022/06/06 06:42:29;;;;;;;3.70;2.97;;;;;;;23.22;52.39;99950.72;4342077;33;33774;-69
2022/06/06 06:45:01;;;;;;;3.58;2.90;;;;;;;23.60;52.32;99938.91;4362124;32;34299;-76
2022/06/06 06:47:34;;;;;;;4.05;2.92;;;;;;;23.66;51.11;99943.91;4348915;32;33803;-67
2022/06/06 06:50:19;;;;;;;4.15;3.20;;;;;;;23.24;53.07;99938.19;4361858;32;35038;-69
2022/06/06 06:53:05;;;;;;;;;;;;;;;23.45;51.01;99932.75;4349278;32;33753;-67
2022/06/06 06:56:14;;;;;;;3.80;3.10;;;;;;;23.48;51.47;99932.09;4361748;32;34599;-68
2022/06/06 06:58:47;;;;;;;3.92;2.70;;;;;;;23.83;50.83;99933.94;4286563;33;34337;-68
2022/06/06 07:01:21;;;;;;;5.47;3.00;;;;;;;24.02;50.87;99939.06;4342250;32;33514;-67
2022/06/06 07:10:02;;;;;;;3.80;3.08;;;;;;;24.26;49.25;99933.69;4334387;32;33744;-68
2022/06/06 07:12:54;;;;;;;3.90;2.58;;;;;;;25.32;47.74;99934.47;4351273;32;33706;-68
2022/06/06 07:15:30;;;;;;;5.00;3.03;;;;;;;26.14;44.27;99948.34;4356773;32;33715;-70
2022/06/06 07:18:03;;;;;;;4.10;2.92;;;;;;;26.04;44.88;99948.81;4348139;32;34186;-68
2022/06/06 07:20:31;;;;;;;3.67;2.62;;;;;;;27.23;41.62;99938.44;4361852;32;35043;-69
2022/06/06 07:23:09;;;;;;;4.60;2.83;;;;;;;27.26;40.22;99938.53;4348671;32;33776;-68
2022/06/06 07:25:42;;;;;;;4.28;3.05;;;;;;;27.29;40.41;99945.38;4359915;32;33984;-69
2022/06/06 07:28:14;;;;;;;3.37;2.45;;;;;;;26.91;38.51;99949.47;4356183;32;35077;-70
2022/06/06 07:30:48;;;;;;;3.30;2.80;;;;;;;26.37;38.76;99940.31;4342116;32;33900;-70
2022/06/06 07:33:37;;;;;;;6.37;3.00;;;;;;;25.42;41.57;99939.59;4356743;32;34388;-74
2022/06/06 07:36:08;;;;;;;3.35;2.50;;;;;;;25.82;41.23;99941.72;4361745;32;33545;-70
2022/06/06 07:38:58;;;;;;;3.05;2.55;;;;;;;26.00;43.13;99950.66;4361664;32;34972;-70
2022/06/06 07:41:39;;;;;;;3.08;2.40;;;;;;;25.81;40.60;99942.06;4361699;32;34203;-71
2022/06/06 07:44:41;;;;;;;4.85;2.90;;;;;;;24.29;42.12;99948.84;4361329;32;33608;-70
2022/06/06 07:47:20;;;;;;;3.53;2.70;;;;;;;25.33;41.57;99949.97;4346831;32;33616;-71
2022/06/06 07:49:59;;;;;;;4.57;2.90;;;;;;;25.74;41.76;99945.41;4361644;32;34055;-70
2022/06/06 07:52:44;;;;;;;3.92;2.80;;;;;;;24.85;40.48;99943.06;4347094;32;33842;-70
2022/06/06 07:55:26;;;;;;;3.47;2.87;;;;;;;25.09;39.71;99943.16;4360061;32;33423;-69
2022/06/06 07:58:17;;;;;;;3.75;2.58;;;;;;;25.24;41.53;99944.50;4360833;32;34909;-70
2022/06/06 08:00:52;;;;;;;3.67;2.78;;;;;;;25.74;37.55;99943.44;4360765;32;34292;-69
2022/06/06 08:03:34;;;;;;;2.83;2.08;;;;;;;26.08;37.75;99948.94;4348295;32;33891;-71
2022/06/06 08:06:29;;;;;;;3.00;2.40;;;;;;;26.27;34.77;99953.91;4361826;32;34489;-69
2022/06/06 08:09:16;;;;;;;2.85;2.33;;;;;;;25.78;35.81;99951.91;4347042;32;34053;-69
2022/06/06 08:12:16;;;;;;;3.40;2.58;;;;;;;25.98;36.50;99966.88;4357944;32;34670;-71
2022/06/06 08:15:15;;;;;;;2.90;2.40;;;;;;;26.53;34.92;99959.88;4348559;32;34369;-70
2022/06/06 08:17:57;;;;;;;3.07;2.53;;;;;;;26.28;35.44;99959.09;4328568;32;33825;-70
2022/06/06 08:20:37;;;;;;;5.37;2.37;;;;;;;25.73;35.72;99961.28;4361393;32;33765;-69
2022/06/06 08:23:05;;;;;;;4.00;2.90;;;;;;;26.09;37.39;99958.88;4348235;32;34257;-69
2022/06/06 08:25:36;;;;;;;3.67;2.80;;;;;;;25.82;40.35;99960.38;4347904;32;33853;-70
2022/06/06 08:28:04;;;;;;;3.78;2.60;;;;;;;26.26;38.89;99960.59;4361406;32;33529;-69
2022/06/06 08:30:35;;;;;;;3.97;3.15;;;;;;;26.12;39.50;99963.75;4359855;32;33649;-71
2022/06/06 08:33:03;;;;;;;3.37;2.58;;;;;;;24.86;41.99;99959.38;4361251;32;34352;-70
2022/06/06 08:36:14;;;;;;;6.00;3.00;;;;;;;25.19;41.59;99966.91;4359462;32;34180;-70
2022/06/06 08:38:48;;;;;;;4.22;3.05;;;;;;;25.69;41.83;99967.88;4359288;32;33725;-69
2022/06/06 08:41:37;;;;;;;4.00;3.28;;;;;;;25.71;41.35;99968.34;4353799;32;33748;-69
2022/06/06 08:44:13;;;;;;;3.83;2.85;;;;;;;26.19;43.21;99966.75;4362006;32;34300;-72
2022/06/06 08:47:07;;;;;;;3.75;3.00;;;;;;;25.91;42.78;99967.44;4361245;32;33747;-68
2022/06/06 08:52:58;;;;;;;3.87;2.85;;;;;;;26.13;38.82;99968.97;4358662;32;33609;-70
2022/06/06 08:55:47;;;;;;;4.43;3.08;;;;;;;26.30;39.12;99964.31;4361456;32;34907;-71
2022/06/06 08:58:43;;;;;;;3.67;3.10;;;;;;;25.90;39.44;99957.50;4361107;32;34208;-72
2022/06/06 09:01:20;;;;;;;4.47;3.53;;;;;;;25.52;41.15;99957.78;4360821;32;33584;-74
2022/06/06 09:04:21;;;;;;;4.43;3.42;;;;;;;25.44;42.99;99953.94;4347560;32;33994;-69
2022/06/06 09:07:10;;;;;;;4.93;3.53;;;;;;;24.78;43.83;99957.50;4332747;33;34207;-70
2022/06/06 09:09:56;;;;;;;5.30;3.58;;;;;;;25.10;43.57;99957.88;4346092;33;35252;-68
2022/06/06 09:12:43;;;;;;;5.45;4.15;;;;;;;24.65;44.80;99955.81;4358021;32;34587;-67
2022/06/06 09:15:20;;;;;;;3.85;3.42;;;;;;;24.41;45.46;99953.69;4361052;32;33949;-69
2022/06/06 09:17:50;;;;;;;4.35;3.67;;;;;;;25.03;45.07;99952.84;4360980;32;34285;-68
2022/06/06 09:20:23;;;;;;;4.18;3.30;;;;;;;24.59;42.96;99952.41;4360431;32;34005;-71
2022/06/06 09:23:01;;;;;;;4.47;3.30;;;;;;;24.34;44.44;99955.03;4361122;32;33747;-66
2022/06/06 09:25:37;;;;;;;4.32;3.60;;;;;;;24.32;45.49;99949.00;4360816;32;34074;-67
2022/06/06 09:28:23;;;;;;;4.68;3.62;;;;;;;24.81;43.47;99937.38;4347021;32;35179;-66
2022/06/06 09:30:54;;;;;;;4.35;3.30;;;;;;;24.02;45.49;99934.34;4360714;32;34478;-67
2022/06/06 09:33:30;;;;;;;4.78;3.80;;;;;;;24.51;42.76;99928.31;4360991;32;33819;-71
2022/06/06 09:36:19;;;;;;;4.62;3.37;;;;;;;24.67;41.79;99923.81;4360524;32;34822;-67
2022/06/06 09:38:53;;;;;;;4.35;3.35;;;;;;;24.85;43.91;99931.97;4345428;33;33283;-70
2022/06/06 09:41:27;;;;;;;5.75;3.33;;;;;;;25.04;43.30;99931.47;4331853;33;34833;-70
2022/06/06 09:44:31;;;;;;;6.05;3.70;;;;;;;25.45;42.89;99927.78;4348370;33;34333;-71
2022/06/06 09:47:23;;;;;;;4.37;3.40;;;;;;;26.06;39.32;99926.22;4333950;33;34495;-68
2022/06/06 09:50:28;;;;;;;3.87;3.10;;;;;;;25.54;42.38;99920.16;4334687;33;34212;-68
2022/06/06 09:53:05;;;;;;;;;;;;;;;26.25;42.14;99920.88;4348596;33;34859;-69
2022/06/06 09:59:04;;;;;;;3.42;2.83;;;;;;;26.22;41.38;99913.25;4336486;33;33759;-68
2022/06/06 10:01:44;;;;;;;3.70;2.80;;;;;;;26.80;36.70;99905.44;4347535;33;34257;-68
2022/06/06 10:04:21;;;;;;;4.32;3.03;;;;;;;26.02;37.66;99909.41;4347786;33;34488;-69
2022/06/06 10:07:17;;;;;;;4.47;2.80;;;;;;;27.09;36.47;99903.44;4347835;33;33853;-70
2022/06/06 10:10:36;;;;;;;3.75;3.17;;;;;;;27.42;36.11;99905.91;4334098;33;34445;-68
2022/06/06 10:13:27;;;;;;;3.92;2.92;;;;;;;27.19;38.92;99907.66;4322822;33;34139;-68
2022/06/06 10:16:12;;;;;;;3.90;2.80;;;;;;;27.06;34.22;99897.75;4334327;33;33727;-68
2022/06/06 10:19:05;;;;;;;3.75;2.80;;;;;;;26.24;36.27;99896.19;4334705;33;33924;-69
2022/06/06 10:22:10;;;;;;;3.87;3.00;;;;;;;26.10;37.46;99897.38;4333926;33;34853;-69
2022/06/06 10:24:54;;;;;;;3.47;2.70;;;;;;;26.31;36.44;99901.97;4333909;33;35107;-67
2022/06/06 10:28:03;;;;;;;2.80;2.33;;;;;;;26.82;33.95;99891.16;4347775;33;33977;-68
2022/06/06 10:30:37;;;;;;;3.35;2.50;;;;;;;26.09;34.03;99889.38;4274267;33;34317;-67
2022/06/06 10:33:33;;;;;;;3.40;2.42;;;;;;;26.91;33.11;99888.19;4341162;33;33839;-69
2022/06/06 10:36:20;;;;;;;2.53;2.33;;;;;;;27.46;30.87;99905.22;4347425;33;35018;-68
2022/06/06 10:38:57;;;;;;;3.05;2.45;;;;;;;27.08;32.67;99890.66;4322001;33;34303;-67
2022/06/06 10:41:46;;;;;;;3.37;2.53;;;;;;;27.51;33.14;99899.38;4345418;32;34458;-67
2022/06/06 10:44:51;;;;;;;3.28;2.60;;;;;;;26.84;29.93;99893.59;4347730;33;34077;-68
2022/06/06 10:47:18;;;;;;;2.85;2.37;;;;;;;27.52;32.19;99887.06;4347435;33;33989;-67
2022/06/06 10:49:46;;;;;;;3.28;2.42;;;;;;;26.77;31.86;99880.28;4347117;33;34188;-71
2022/06/06 10:52:39;;;;;;;2.97;2.45;;;;;;;26.97;30.53;99872.88;4347542;33;33517;-69
2022/06/06 10:55:38;;;;;;;3.97;2.85;;;;;;;27.05;31.58;99874.69;4347402;33;34035;-69
2022/06/06 10:58:24;;;;;;;3.50;2.60;;;;;;;26.73;33.95;99871.00;4347360;33;35106;-67
2022/06/06 11:01:11;;;;;;;3.20;2.35;;;;;;;27.27;32.94;99876.06;4347238;33;34929;-67
2022/06/06 11:03:49;;;;;;;3.22;2.45;;;;;;;27.15;31.44;99865.81;4347408;33;33993;-68
2022/06/06 11:06:44;;;;;;;3.30;2.37;;;;;;;27.50;32.90;99869.91;4347060;33;33982;-67
2022/06/06 11:09:19;;;;;;;3.80;2.60;;;;;;;27.92;32.53;99878.50;4333935;33;34203;-67
2022/06/06 11:11:55;;;;;;;2.83;2.40;;;;;;;28.54;30.99;99861.13;4333834;33;34093;-67
2022/06/06 11:14:35;;;;;;;3.00;2.30;;;;;;;28.59;30.91;99870.00;4347520;33;33242;-68
2022/06/06 11:17:16;;;;;;;3.58;2.67;;;;;;;27.20;30.92;99862.75;4345651;33;34777;-67
2022/06/06 11:20:21;;;;;;;4.15;2.33;;;;;;;27.20;30.60;99859.16;4333813;33;35202;-67
2022/06/06 11:23:03;;;;;;;2.83;2.33;;;;;;;27.58;31.83;99864.13;4346385;32;34994;-67
2022/06/06 11:25:58;;;;;;;3.17;2.30;;;;;;;28.18;30.81;99857.56;4333902;33;33468;-66
2022/06/06 11:28:33;;;;;;;3.45;2.50;;;;;;;28.13;30.95;99867.03;4316958;33;33199;-66
2022/06/06 11:31:16;;;;;;;3.33;2.42;;;;;;;28.56;31.34;99847.63;4346761;33;34987;-66
2022/06/06 11:33:56;;;;;;;3.35;2.62;;;;;;;28.19;30.69;99857.19;4333544;33;34308;-70
2022/06/06 11:37:06;;;;;;;4.22;2.40;;;;;;;27.47;31.39;99846.31;4347263;33;33570;-70
2022/06/06 11:39:54;;;;;;;3.58;2.78;;;;;;;28.53;29.51;99848.34;4347058;33;34020;-67
2022/06/06 11:42:40;;;;;;;3.22;2.40;;;;;;;28.16;31.35;99846.75;4347319;33;33927;-68
2022/06/06 11:45:26;;;;;;;3.78;2.42;;;;;;;28.12;30.59;99843.09;4347249;33;34325;-67
2022/06/06 11:47:59;;;;;;;4.53;2.50;;;;;;;29.00;31.48;99844.47;4347485;33;33718;-67
2022/06/06 11:51:05;;;;;;;3.05;2.65;;;;;;;29.09;30.93;99836.66;4346419;33;33972;-67
2022/06/06 11:54:02;;;;;;;3.58;2.67;;;;;;;29.39;29.99;99842.38;4347364;33;34278;-66
2022/06/06 11:56:35;;;;;;;6.45;2.47;;;;;;;27.97;30.47;99849.50;4353532;32;34776;-66
2022/06/06 11:59:15;;;;;;;2.95;2.25;;;;;;;28.05;30.34;99833.75;4357056;32;33808;-66
2022/06/06 12:01:49;;;;;;;3.83;2.67;;;;;;;28.52;31.50;99830.78;4361579;32;33731;-66
2022/06/06 12:04:23;;;;;;;;;;;;;;;28.50;31.19;99827.56;4361076;32;33807;-66
2022/06/06 12:06:53;;;;;;;2.60;2.20;;;;;;;29.07;28.80;99825.03;4361422;32;35022;-68
2022/06/06 12:09:52;;;;;;;3.42;2.55;;;;;;;29.65;29.37;99815.63;4361563;32;34662;-67
2022/06/06 12:12:30;;;;;;;2.75;2.30;;;;;;;29.30;28.93;99813.88;4330022;32;34609;-66
2022/06/06 12:15:14;;;;;;;3.45;2.45;;;;;;;29.49;27.45;99812.19;4361260;32;35053;-66
2022/06/06 12:17:52;;;;;;;4.07;2.47;;;;;;;28.84;30.19;99811.88;4348048;32;34011;-67
2022/06/06 12:20:38;;;;;;;3.08;2.40;;;;;;;27.98;30.50;99809.31;4348214;32;33821;-67
2022/06/06 12:23:34;;;;;;;3.17;2.20;;;;;;;29.06;28.87;99803.87;4355966;32;34175;-68
2022/06/06 12:26:06;;;;;;;3.05;2.37;;;;;;;29.41;28.48;99794.50;4332896;32;34110;-69
2022/06/06 12:29:04;;;;;;;2.78;2.35;;;;;;;29.71;28.12;99808.56;4360660;32;33985;-66
2022/06/06 12:31:52;;;;;;;3.78;2.35;;;;;;;29.85;29.31;99807.97;4342714;33;34643;-67
2022/06/06 12:34:43;;;;;;;2.85;2.25;;;;;;;29.07;27.86;99796.28;4346409;33;35572;-68
2022/06/06 12:37:40;;;;;;;3.03;2.35;;;;;;;29.30;31.15;99794.31;4333039;33;34200;-69
2022/06/06 12:40:19;;;;;;;3.20;2.30;;;;;;;29.23;30.65;99795.00;4332745;32;34889;-66
2022/06/06 12:43:18;;;;;;;3.80;2.53;;;;;;;29.64;27.95;99794.44;4347220;32;34439;-68
2022/06/06 12:46:08;;;;;;;3.30;2.42;;;;;;;29.01;28.31;99791.03;4361215;32;34845;-68
2022/06/06 12:48:54;;;;;;;2.90;2.40;;;;;;;27.75;29.75;99793.25;4360685;32;34316;-67
2022/06/06 12:51:47;;;;;;;3.25;2.60;;;;;;;28.99;31.20;99793.38;4361101;32;33966;-71
2022/06/06 12:57:58;;;;;;;4.53;2.50;;;;;;;28.95;30.27;99791.72;4345665;33;33940;-71
2022/06/06 13:03:29;;;;;;;2.65;2.40;;;;;;;29.85;28.30;99783.59;4360662;32;34115;-69
2022/06/06 13:06:08;;;;;;;2.95;2.30;;;;;;;29.23;27.87;99781.03;4361105;32;34461;-72